Time;durP1;ratioP1;P1;durP2;ratioP2;P2;SDS_P1;SDS_P2;PMS_P1;PMS_P2;Temp;Humidity;BMP_temperature;BMP_pressure;BME280_temperature;BME280_humidity;BME280_pressure;Samples;Min_cycle;Max_cycle;Signal;HPM_P1;HPM_P2
2023/10/14 00:01:27;;;;;;;9.00;2.70;;;;;;;-141.23;100.00;62281.09;4995530;28;20053;-70
2023/10/14 00:03:54;;;;;;;6.60;2.30;;;;;;;-141.23;100.00;62281.09;4992107;28;20093;-71
2023/10/14 00:06:20;;;;;;;4.65;2.25;;;;;;;-141.23;100.00;62281.09;4992531;28;20049;-70
2023/10/14 00:08:54;;;;;;;10.07;2.80;;;;;;;-141.23;100.00;62281.09;4962970;28;20515;-70
2023/10/14 00:11:23;;;;;;;10.63;2.63;;;;;;;-141.23;100.00;62281.09;4976358;28;20453;-70
2023/10/14 00:13:52;;;;;;;12.07;3.00;;;;;;;-141.23;100.00;62281.09;4959896;28;20054;-72
2023/10/14 00:18:55;;;;;;;10.52;2.92;;;;;;;-141.23;100.00;62281.09;4979517;28;20578;-71
2023/10/14 00:21:25;;;;;;;9.25;2.83;;;;;;;-141.23;100.00;62281.09;5010801;28;20050;-71
2023/10/14 00:23:55;;;;;;;11.07;2.97;;;;;;;-141.23;100.00;62281.09;4978688;28;20050;-70
2023/10/14 00:26:28;;;;;;;8.93;2.60;;;;;;;-141.23;100.00;62281.09;4947129;28;20158;-70
2023/10/14 00:31:41;;;;;;;9.05;3.08;;;;;;;-141.23;100.00;62281.09;5000625;28;20387;-72
2023/10/14 00:34:07;;;;;;;9.18;2.33;;;;;;;-141.23;100.00;62281.09;5002326;28;20040;-72
2023/10/14 00:36:34;;;;;;;9.00;2.25;;;;;;;-141.23;100.00;62281.09;4985897;28;21063;-72
2023/10/14 00:39:23;;;;;;;8.20;2.85;;;;;;;-141.23;100.00;62281.09;5002627;28;20136;-72
2023/10/14 00:41:52;;;;;;;8.70;2.50;;;;;;;-141.23;100.00;62281.09;5021400;28;20116;-71
2023/10/14 00:44:20;;;;;;;6.78;2.45;;;;;;;-141.23;100.00;62281.09;4978469;28;20054;-71
2023/10/14 00:46:50;;;;;;;5.78;2.30;;;;;;;-141.23;100.00;62281.09;4946438;28;20053;-72
2023/10/14 00:49:17;;;;;;;8.88;2.60;;;;;;;-141.23;100.00;62281.09;4962881;28;20054;-72
2023/10/14 00:51:45;;;;;;;6.88;2.00;;;;;;;-141.23;100.00;62281.09;4994941;28;20041;-71
2023/10/14 00:54:18;;;;;;;6.38;2.33;;;;;;;-141.23;100.00;62281.09;4975271;28;20042;-70
2023/10/14 00:56:46;;;;;;;6.00;2.10;;;;;;;-141.23;100.00;62281.09;4960115;28;20046;-77
2023/10/14 00:59:14;;;;;;;7.75;2.28;;;;;;;-141.23;100.00;62281.09;4959563;28;20058;-71
2023/10/14 01:01:58;;;;;;;6.57;2.10;;;;;;;-141.23;100.00;62281.09;4991231;28;20408;-71
2023/10/14 01:04:39;;;;;;;9.73;3.00;;;;;;;-141.23;100.00;62281.09;4960965;28;20404;-71
2023/10/14 01:07:14;;;;;;;9.73;2.75;;;;;;;-141.23;100.00;62281.09;4958549;28;20053;-71
2023/10/14 01:14:52;;;;;;;9.35;2.90;;;;;;;-141.23;100.00;62281.09;4947052;28;20050;-75
2023/10/14 01:19:52;;;;;;;8.50;3.00;;;;;;;-141.23;100.00;62281.09;4976360;28;20042;-72
2023/10/14 01:22:19;;;;;;;6.55;2.83;;;;;;;-141.23;100.00;62281.09;4975467;28;20045;-72
2023/10/14 01:24:46;;;;;;;14.25;3.85;;;;;;;-141.23;100.00;62281.09;4989724;28;20446;-77
2023/10/14 01:27:13;;;;;;;8.88;3.63;;;;;;;-141.23;100.00;62281.09;5000801;28;20219;-70
2023/10/14 01:29:40;;;;;;;11.88;3.38;;;;;;;-141.23;100.00;62281.09;5018116;28;20048;-71
2023/10/14 01:32:49;;;;;;;7.65;3.63;;;;;;;-141.23;100.00;62281.09;5033756;28;20195;-71
2023/10/14 01:37:56;;;;;;;9.65;3.42;;;;;;;-141.23;100.00;62281.09;5002800;28;20048;-72
2023/10/14 01:43:05;;;;;;;9.50;3.17;;;;;;;-141.23;100.00;62281.09;5017725;28;20052;-71
2023/10/14 01:46:00;;;;;;;9.73;3.40;;;;;;;-141.23;100.00;62281.09;5034035;28;20043;-72
2023/10/14 01:48:31;;;;;;;11.52;3.70;;;;;;;-141.23;100.00;62281.09;5001234;28;20068;-72
2023/10/14 01:51:03;;;;;;;;;;;;;;;-141.23;100.00;62281.09;5002259;28;20103;-71
2023/10/14 01:53:34;;;;;;;11.70;3.72;;;;;;;-141.23;100.00;62281.09;5018499;28;19920;-71
2023/10/14 01:56:02;;;;;;;8.32;3.47;;;;;;;-141.23;100.00;62281.09;5002314;28;20407;-71
2023/10/14 01:58:36;;;;;;;9.38;2.70;;;;;;;-141.23;100.00;62281.09;5001375;28;20049;-72
2023/10/14 02:01:15;;;;;;;11.50;3.45;;;;;;;-141.23;100.00;62281.09;5017696;28;20051;-72
2023/10/14 02:03:54;;;;;;;8.80;3.67;;;;;;;-141.23;100.00;62281.09;5002535;28;20052;-72
2023/10/14 02:06:26;;;;;;;10.15;3.20;;;;;;;-141.23;100.00;62281.09;5017370;28;20554;-73
2023/10/14 02:08:54;;;;;;;10.20;2.72;;;;;;;-141.23;100.00;62281.09;5001025;28;20073;-71
2023/10/14 02:11:26;;;;;;;9.82;2.92;;;;;;;-141.23;100.00;62281.09;5017643;28;20131;-71
2023/10/14 02:13:53;;;;;;;12.65;3.20;;;;;;;-141.23;100.00;62281.09;5017700;28;20125;-71
2023/10/14 02:16:35;;;;;;;12.30;2.95;;;;;;;-141.23;100.00;62281.09;5017798;28;20127;-72
2023/10/14 02:19:17;;;;;;;12.20;2.90;;;;;;;-141.23;100.00;62281.09;5016954;28;20041;-75
2023/10/14 02:22:09;;;;;;;9.18;2.67;;;;;;;-141.23;100.00;62281.09;5022669;28;20413;-73
2023/10/14 02:24:36;;;;;;;9.30;2.97;;;;;;;-141.23;100.00;62281.09;5034486;28;20037;-72
2023/10/14 02:27:11;;;;;;;10.32;2.40;;;;;;;-141.23;100.00;62281.09;5000932;28;20124;-72
2023/10/14 02:29:41;;;;;;;9.57;2.88;;;;;;;-141.23;100.00;62281.09;5001738;28;20053;-72
2023/10/14 02:32:11;;;;;;;9.02;3.00;;;;;;;-141.23;100.00;62281.09;5001212;28;20044;-71
2023/10/14 02:34:38;;;;;;;15.98;2.63;;;;;;;-141.23;100.00;62281.09;5017135;28;20057;-70
2023/10/14 02:37:12;;;;;;;7.57;2.47;;;;;;;-141.23;100.00;62281.09;5017279;28;20093;-71
2023/10/14 02:39:39;;;;;;;7.95;2.53;;;;;;;-141.23;100.00;62281.09;5001369;28;20479;-70
2023/10/14 02:44:33;;;;;;;10.02;3.13;;;;;;;-141.23;100.00;62281.09;5002685;28;20149;-73
2023/10/14 02:47:04;;;;;;;8.45;3.22;;;;;;;-141.23;100.00;62281.09;5021320;28;20057;-73
2023/10/14 02:49:36;;;;;;;9.88;3.00;;;;;;;-141.23;100.00;62281.09;5021522;28;20449;-72
2023/10/14 02:52:18;;;;;;;10.02;3.10;;;;;;;-141.23;100.00;62281.09;5037068;28;20076;-72
2023/10/14 02:54:54;;;;;;;12.40;3.67;;;;;;;-141.23;100.00;62281.09;5022551;28;20044;-71
2023/10/14 02:57:26;;;;;;;9.80;3.40;;;;;;;-141.23;100.00;62281.09;5037186;28;20098;-73
2023/10/14 02:59:55;;;;;;;11.43;3.45;;;;;;;-141.23;100.00;62281.09;5004226;28;20501;-72
2023/10/14 03:07:45;;;;;;;9.52;3.65;;;;;;;-141.23;100.00;62281.09;5005010;28;20045;-70
2023/10/14 03:12:50;;;;;;;9.45;3.28;;;;;;;-141.23;100.00;62281.09;5006289;28;20045;-71
2023/10/14 03:15:21;;;;;;;10.15;2.50;;;;;;;-141.23;100.00;62281.09;5004337;28;20139;-70
2023/10/14 03:18:13;;;;;;;7.05;2.60;;;;;;;-141.23;100.00;62281.09;5021453;28;20542;-70
2023/10/14 03:23:41;;;;;;;5.68;2.45;;;;;;;-141.23;100.00;62281.09;4984828;28;20515;-71
2023/10/14 03:26:13;;;;;;;10.88;2.50;;;;;;;-141.23;100.00;62281.09;4996983;28;20068;-70
2023/10/14 03:28:44;;;;;;;8.85;2.58;;;;;;;-141.23;100.00;62281.09;5005220;28;20387;-71
2023/10/14 03:31:15;;;;;;;8.73;2.45;;;;;;;-141.23;100.00;62281.09;5005133;28;20087;-71
2023/10/14 03:33:43;;;;;;;10.63;2.63;;;;;;;-141.23;100.00;62281.09;5020095;28;20045;-72
2023/10/14 03:36:15;;;;;;;10.07;2.60;;;;;;;-141.23;100.00;62281.09;5020696;28;20044;-72
2023/10/14 03:38:46;;;;;;;9.30;2.40;;;;;;;-141.23;100.00;62281.09;5011969;28;20443;-71
2023/10/14 03:41:18;;;;;;;11.38;2.88;;;;;;;-141.23;100.00;62281.09;5019768;28;20040;-71
2023/10/14 03:43:59;;;;;;;9.05;2.75;;;;;;;-141.23;100.00;62281.09;5020878;28;20056;-70
2023/10/14 03:46:32;;;;;;;10.45;2.70;;;;;;;-141.23;100.00;62281.09;5003747;28;20127;-71
2023/10/14 03:49:05;;;;;;;7.82;2.60;;;;;;;-141.23;100.00;62281.09;5003236;28;20471;-71
2023/10/14 03:51:32;;;;;;;9.10;2.25;;;;;;;-141.23;100.00;62281.09;5004294;28;20052;-72
2023/10/14 03:54:08;;;;;;;8.15;2.88;;;;;;;-141.23;100.00;62281.09;5003314;28;20052;-72
2023/10/14 03:56:35;;;;;;;7.35;2.20;;;;;;;-141.23;100.00;62281.09;5020576;28;20063;-72
2023/10/14 03:59:03;;;;;;;10.20;2.38;;;;;;;-141.23;100.00;62281.09;5003934;28;20139;-72
2023/10/14 04:04:17;;;;;;;9.50;2.17;;;;;;;-141.23;100.00;62281.09;5004222;28;20041;-71
2023/10/14 04:09:44;;;;;;;10.95;2.55;;;;;;;-141.23;100.00;62281.09;5021037;28;20111;-71
2023/10/14 04:12:12;;;;;;;9.55;2.53;;;;;;;-141.23;100.00;62281.09;5004726;28;20528;-72
2023/10/14 04:14:40;;;;;;;12.07;2.33;;;;;;;-141.23;100.00;62281.09;5018905;28;20053;-73
2023/10/14 04:17:19;;;;;;;8.27;2.40;;;;;;;-141.23;100.00;62281.09;5019327;28;20037;-71
2023/10/14 04:19:47;;;;;;;12.63;3.05;;;;;;;-141.23;100.00;62281.09;5002856;28;20137;-71
2023/10/14 04:25:09;;;;;;;9.98;2.50;;;;;;;-141.23;100.00;62281.09;5019847;28;20505;-72
2023/10/14 04:27:36;;;;;;;4.72;2.30;;;;;;;-141.23;100.00;62281.09;4988190;28;20123;-71
2023/10/14 04:30:11;;;;;;;7.68;2.20;;;;;;;-141.23;100.00;62281.09;5035113;28;20107;-70
2023/10/14 04:32:48;;;;;;;9.65;2.90;;;;;;;-141.23;100.00;62281.09;5019020;28;20044;-73
2023/10/14 04:35:22;;;;;;;8.32;2.40;;;;;;;-141.23;100.00;62281.09;4983782;28;20538;-74
2023/10/14 04:37:53;;;;;;;7.90;2.50;;;;;;;-141.23;100.00;62281.09;4996069;28;20059;-76
2023/10/14 04:43:00;;;;;;;16.00;2.78;;;;;;;-141.23;100.00;62281.09;5020282;28;19936;-76
2023/10/14 04:45:32;;;;;;;15.38;2.85;;;;;;;-141.23;100.00;62281.09;4986047;28;20037;-75
2023/10/14 04:47:59;;;;;;;8.75;2.70;;;;;;;-141.23;100.00;62281.09;5019603;28;20378;-75
2023/10/14 04:50:25;;;;;;;9.40;2.67;;;;;;;-141.23;100.00;62281.09;5002524;28;20049;-74
2023/10/14 04:52:51;;;;;;;8.25;2.58;;;;;;;-141.23;100.00;62281.09;5018678;28;20049;-76
2023/10/14 04:58:07;;;;;;;7.57;2.33;;;;;;;-141.23;100.00;62281.09;5003116;28;20387;-72
2023/10/14 05:00:38;;;;;;;10.63;2.55;;;;;;;-141.23;100.00;62281.09;5004962;28;20040;-80
2023/10/14 05:03:05;;;;;;;9.20;2.60;;;;;;;-141.23;100.00;62281.09;5001970;28;20118;-78
2023/10/14 05:05:34;;;;;;;6.43;2.58;;;;;;;-141.23;100.00;62281.09;5018099;28;20067;-75
2023/10/14 05:08:04;;;;;;;10.10;2.38;;;;;;;-141.23;100.00;62281.09;5017346;28;20132;-78
2023/10/14 05:10:30;;;;;;;7.63;2.70;;;;;;;-141.23;100.00;62281.09;4986279;28;20059;-73
2023/10/14 05:12:56;;;;;;;13.60;2.85;;;;;;;-141.23;100.00;62281.09;5037809;28;20053;-71
2023/10/14 05:15:26;;;;;;;14.02;3.67;;;;;;;-141.23;100.00;62281.09;5021580;28;20039;-74
2023/10/14 05:18:03;;;;;;;12.68;2.83;;;;;;;-141.23;100.00;62281.09;5036302;28;20120;-73
2023/10/14 05:20:49;;;;;;;12.18;2.30;;;;;;;-141.23;100.00;62281.09;5020396;28;20126;-76
2023/10/14 05:23:19;;;;;;;9.07;3.05;;;;;;;-141.23;100.00;62281.09;5013018;28;20041;-75
2023/10/14 05:25:56;;;;;;;;;;;;;;;-141.23;100.00;62281.09;5021866;28;20053;-74
2023/10/14 05:28:29;;;;;;;10.25;2.45;;;;;;;-141.23;100.00;62281.09;5042858;28;19931;-75
2023/10/14 05:31:05;;;;;;;7.32;2.10;;;;;;;-141.23;100.00;62281.09;5017918;28;20391;-77
2023/10/14 05:33:33;;;;;;;14.63;3.30;;;;;;;-141.23;100.00;62281.09;5051940;28;20056;-78
2023/10/14 05:36:01;;;;;;;9.40;2.70;;;;;;;-141.23;100.00;62281.09;5034169;28;20041;-73
2023/10/14 05:38:28;;;;;;;8.57;2.55;;;;;;;-141.23;100.00;62281.09;5017628;28;20045;-78
2023/10/14 05:40:56;;;;;;;12.45;2.72;;;;;;;-141.23;100.00;62281.09;5017858;28;20446;-78
2023/10/14 05:43:23;;;;;;;16.05;2.47;;;;;;;-141.23;100.00;62281.09;5031663;28;20037;-74
2023/10/14 05:45:51;;;;;;;11.05;2.75;;;;;;;-141.23;100.00;62281.09;5051642;28;20467;-75
2023/10/14 05:48:17;;;;;;;9.25;2.67;;;;;;;-141.23;100.00;62281.09;5051818;28;20041;-77
2023/10/14 05:50:43;;;;;;;8.38;2.15;;;;;;;-141.23;100.00;62281.09;5053115;28;20037;-76
2023/10/14 05:53:10;;;;;;;10.50;2.78;;;;;;;-141.23;100.00;62281.09;5052131;28;20490;-80
2023/10/14 05:55:38;;;;;;;8.07;2.63;;;;;;;-141.23;100.00;62281.09;5051108;28;20045;-78
2023/10/14 05:58:06;;;;;;;12.05;2.58;;;;;;;-141.23;100.00;62281.09;5034598;28;20041;-76
2023/10/14 06:00:34;;;;;;;11.68;3.28;;;;;;;-141.23;100.00;62281.09;5018363;28;20045;-76
2023/10/14 06:03:00;;;;;;;8.60;2.80;;;;;;;-141.23;100.00;62281.09;5000490;28;20095;-76
2023/10/14 06:05:29;;;;;;;7.15;2.58;;;;;;;-141.23;100.00;62281.09;5000653;28;20057;-78
2023/10/14 06:08:16;;;;;;;7.82;2.85;;;;;;;-141.23;100.00;62281.09;5049991;28;20487;-75
2023/10/14 06:10:43;;;;;;;9.80;3.00;;;;;;;-141.23;100.00;62281.09;5050114;28;20483;-76
2023/10/14 06:13:11;;;;;;;11.40;2.97;;;;;;;-141.23;100.00;62281.09;5017891;28;20051;-75
2023/10/14 06:15:39;;;;;;;8.95;2.50;;;;;;;-141.23;100.00;62281.09;5034300;28;20502;-76
2023/10/14 06:18:05;;;;;;;11.95;2.38;;;;;;;-141.23;100.00;62281.09;5051277;28;20052;-77
2023/10/14 06:20:34;;;;;;;11.70;2.97;;;;;;;-141.23;100.00;62281.09;5054821;28;20128;-77
2023/10/14 06:23:01;;;;;;;19.02;2.83;;;;;;;-141.23;100.00;62281.09;5006673;28;20044;-80
2023/10/14 06:25:30;;;;;;;9.30;2.30;;;;;;;-141.23;100.00;62281.09;5056849;28;20048;-83
2023/10/14 06:27:58;;;;;;;12.80;2.85;;;;;;;-141.23;100.00;62281.09;5026940;28;20041;-81
2023/10/14 06:30:24;;;;;;;16.85;3.13;;;;;;;-141.23;100.00;62281.09;5007521;28;20058;-80
2023/10/14 06:32:53;;;;;;;15.27;4.10;;;;;;;-141.23;100.00;62281.09;5006355;28;20044;-81
2023/10/14 06:35:19;;;;;;;11.45;2.72;;;;;;;-141.23;100.00;62281.09;5056150;28;20489;-80
2023/10/14 06:37:46;;;;;;;11.05;3.03;;;;;;;-141.23;100.00;62281.09;5073848;28;20043;-79
2023/10/14 06:40:14;;;;;;;12.55;3.08;;;;;;;-141.23;100.00;62281.09;5028353;28;20128;-80
2023/10/14 06:42:43;;;;;;;13.50;3.70;;;;;;;-141.23;100.00;62281.09;5024552;28;20115;-79
2023/10/14 06:45:13;;;;;;;18.15;3.58;;;;;;;-141.23;100.00;62281.09;5051454;28;20091;-78
2023/10/14 06:47:45;;;;;;;11.13;2.90;;;;;;;-141.23;100.00;62281.09;5050953;28;20055;-79
2023/10/14 06:50:12;;;;;;;10.10;3.22;;;;;;;-141.23;100.00;62281.09;5038778;28;20075;-79
2023/10/14 06:52:43;;;;;;;18.15;3.60;;;;;;;-141.23;100.00;62281.09;5021558;28;20045;-79
2023/10/14 06:55:09;;;;;;;17.77;3.90;;;;;;;-141.23;100.00;62281.09;5021017;28;20045;-78
2023/10/14 06:57:36;;;;;;;15.90;3.67;;;;;;;-141.23;100.00;62281.09;5020981;28;20071;-77
2023/10/14 07:00:12;;;;;;;11.40;3.63;;;;;;;-141.23;100.00;62281.09;5000123;28;20173;-78
2023/10/14 07:02:39;;;;;;;13.80;3.83;;;;;;;-141.23;100.00;62281.09;4964793;28;20084;-79
2023/10/14 07:05:05;;;;;;;12.73;3.42;;;;;;;-141.23;100.00;62281.09;4977276;28;20053;-77
2023/10/14 07:07:32;;;;;;;16.88;3.92;;;;;;;-141.23;100.00;62281.09;4964029;28;20456;-77
2023/10/14 07:09:59;;;;;;;20.73;4.82;;;;;;;-141.23;100.00;62281.09;4963863;28;20076;-75
2023/10/14 07:12:28;;;;;;;14.02;3.00;;;;;;;-141.23;100.00;62281.09;4973365;28;20145;-76
2023/10/14 07:14:54;;;;;;;19.48;3.63;;;;;;;-141.23;100.00;62281.09;4941930;28;20043;-76
2023/10/14 07:17:22;;;;;;;10.23;3.40;;;;;;;-141.23;100.00;62281.09;4941432;28;20057;-72
2023/10/14 07:19:48;;;;;;;15.13;4.05;;;;;;;-141.23;100.00;62281.09;4941684;28;20059;-75
2023/10/14 07:22:20;;;;;;;23.77;5.05;;;;;;;-141.23;100.00;62281.09;4925516;28;20051;-75
2023/10/14 07:24:52;;;;;;;11.05;3.45;;;;;;;-141.23;100.00;62281.09;4941991;28;20051;-75
2023/10/14 07:27:20;;;;;;;8.95;3.30;;;;;;;-141.23;100.00;62281.09;4935304;29;20086;-77
2023/10/14 07:29:46;;;;;;;15.10;3.58;;;;;;;-141.23;100.00;62281.09;4933223;28;20066;-71
2023/10/14 07:32:15;;;;;;;11.05;3.60;;;;;;;-141.23;100.00;62281.09;4978041;28;20480;-70
2023/10/14 07:34:44;;;;;;;12.73;2.88;;;;;;;-141.23;100.00;62281.09;4962987;28;20049;-68
2023/10/14 07:37:13;;;;;;;11.20;3.15;;;;;;;-141.23;100.00;62281.09;4994847;28;20488;-69
2023/10/14 07:39:39;;;;;;;12.80;3.42;;;;;;;-141.23;100.00;62281.09;4962729;28;20116;-70
2023/10/14 07:42:13;;;;;;;18.83;4.10;;;;;;;-141.23;100.00;62281.09;4963651;28;20139;-69
2023/10/14 07:44:42;;;;;;;11.52;3.55;;;;;;;-141.23;100.00;62281.09;5034149;28;20588;-70
2023/10/14 07:47:10;;;;;;;16.98;2.70;;;;;;;-141.23;100.00;62281.09;5009876;28;20083;-70
2023/10/14 07:49:38;;;;;;;14.93;3.65;;;;;;;-141.23;100.00;62281.09;5002031;28;20049;-79
2023/10/14 07:52:08;;;;;;;10.40;3.33;;;;;;;-141.23;100.00;62281.09;4997109;28;20136;-69
2023/10/14 07:54:37;;;;;;;14.68;3.40;;;;;;;-141.23;100.00;62281.09;5014141;28;20056;-70
2023/10/14 07:57:06;;;;;;;18.15;4.07;;;;;;;-141.23;100.00;62281.09;4994731;28;20065;-72
2023/10/14 07:59:37;;;;;;;18.30;4.03;;;;;;;-141.23;100.00;62281.09;4936799;29;20059;-71
2023/10/14 08:02:04;;;;;;;13.75;3.63;;;;;;;-141.23;100.00;62281.09;4952211;29;20055;-72
2023/10/14 08:04:30;;;;;;;16.13;3.75;;;;;;;-141.23;100.00;62281.09;4935168;28;20126;-73
2023/10/14 08:06:57;;;;;;;13.38;3.58;;;;;;;11.59;100.00;98705.84;4919224;29;20589;-74
2023/10/14 08:09:28;;;;;;;11.15;3.40;;;;;;;11.61;100.00;98743.69;4904465;29;20138;-74
2023/10/14 08:11:56;;;;;;;12.20;3.10;;;;;;;11.83;100.00;98726.78;4925019;29;20051;-74
2023/10/14 08:14:23;;;;;;;18.90;3.75;;;;;;;11.74;100.00;98678.22;4935938;29;20059;-72
2023/10/14 08:16:49;;;;;;;13.20;3.00;;;;;;;11.74;100.00;98714.63;4927375;29;20397;-78
2023/10/14 08:19:16;;;;;;;9.90;3.08;;;;;;;11.65;100.00;98663.38;4888251;29;20039;-69
2023/10/14 08:21:42;;;;;;;17.38;3.92;;;;;;;11.76;100.00;98673.50;4903990;29;20138;-70
2023/10/14 08:24:14;;;;;;;17.10;3.38;;;;;;;11.68;100.00;98680.81;4921545;28;20054;-68
2023/10/14 08:26:40;;;;;;;11.57;3.05;;;;;;;11.68;100.00;98665.69;4915954;29;20077;-72
2023/10/14 08:29:12;;;;;;;12.13;3.60;;;;;;;11.78;100.00;98676.81;4884268;29;20059;-71
2023/10/14 08:31:42;;;;;;;14.07;3.70;;;;;;;11.77;100.00;98635.28;4900462;29;20476;-72
2023/10/14 08:34:09;;;;;;;10.13;2.63;;;;;;;11.82;100.00;98682.59;4898389;29;20067;-72
2023/10/14 08:36:36;;;;;;;12.48;3.65;;;;;;;11.80;100.00;98642.03;4902930;29;20055;-77
2023/10/14 08:39:03;;;;;;;10.25;3.65;;;;;;;11.78;100.00;98665.34;4950452;29;20043;-70
2023/10/14 08:41:33;;;;;;;14.68;3.17;;;;;;;11.92;100.00;98672.44;4926449;29;20107;-70
2023/10/14 08:44:08;;;;;;;12.55;3.63;;;;;;;12.00;100.00;98648.38;4902847;29;20043;-72
2023/10/14 08:46:39;;;;;;;11.60;3.70;;;;;;;-141.23;100.00;62281.09;4949884;29;20051;-71
2023/10/14 08:49:09;;;;;;;10.95;3.83;;;;;;;12.08;100.00;98618.16;4953005;28;20150;-72
2023/10/14 08:51:44;;;;;;;10.75;3.28;;;;;;;12.10;100.00;98613.47;4929022;28;20070;-71
2023/10/14 08:54:12;;;;;;;15.35;3.42;;;;;;;12.20;100.00;98574.84;4916647;29;20059;-70
2023/10/14 08:56:43;;;;;;;13.10;4.25;;;;;;;12.18;100.00;98619.47;4883552;29;20059;-69
2023/10/14 08:59:12;;;;;;;11.88;3.65;;;;;;;12.11;100.00;98593.81;4933776;29;20078;-70
2023/10/14 09:01:38;;;;;;;16.95;3.72;;;;;;;12.17;100.00;98587.72;4934299;29;20485;-70
2023/10/14 09:04:05;;;;;;;14.43;4.03;;;;;;;12.31;100.00;98562.84;4931247;29;20083;-71
2023/10/14 09:06:32;;;;;;;13.68;3.45;;;;;;;12.36;100.00;98584.38;4915071;29;20063;-70
2023/10/14 09:08:59;;;;;;;10.55;3.22;;;;;;;12.39;100.00;98610.63;4899692;29;20070;-71
2023/10/14 09:11:37;;;;;;;8.27;3.30;;;;;;;12.56;100.00;98588.00;4899047;29;20099;-70
2023/10/14 09:14:05;;;;;;;10.57;3.38;;;;;;;12.60;100.00;98590.06;4914766;29;20351;-76
2023/10/14 09:16:36;;;;;;;16.70;3.65;;;;;;;12.68;100.00;98565.94;4898629;29;20079;-73
2023/10/14 09:19:05;;;;;;;10.07;3.55;;;;;;;12.60;100.00;98590.06;4899475;29;20056;-73
2023/10/14 09:21:32;;;;;;;12.50;3.80;;;;;;;12.84;100.00;98586.09;4877148;29;20053;-73
2023/10/14 09:24:08;;;;;;;8.57;3.38;;;;;;;13.02;100.00;98592.53;4848433;29;20147;-73
2023/10/14 09:26:43;;;;;;;10.10;3.20;;;;;;;13.06;100.00;98559.16;4903804;28;20526;-73
2023/10/14 09:29:11;;;;;;;9.98;3.42;;;;;;;13.06;100.00;98543.16;4955507;28;20488;-73
2023/10/14 09:31:38;;;;;;;8.00;3.28;;;;;;;13.12;100.00;98594.84;4939609;28;20054;-76
2023/10/14 09:34:04;;;;;;;10.00;3.28;;;;;;;13.24;100.00;98559.41;4925479;28;20165;-73
2023/10/14 09:36:34;;;;;;;11.77;3.22;;;;;;;13.48;100.00;98563.38;4958404;28;20149;-69
2023/10/14 09:39:00;;;;;;;8.10;3.20;;;;;;;13.39;100.00;98552.06;4958745;28;20042;-74
2023/10/14 09:41:31;;;;;;;8.75;3.80;;;;;;;13.61;100.00;98611.41;4959101;28;20933;-78
2023/10/14 09:44:08;;;;;;;10.27;3.38;;;;;;;13.72;100.00;98543.28;4940712;28;20465;-73
2023/10/14 09:46:40;;;;;;;9.35;3.25;;;;;;;13.69;100.00;98522.34;4955900;28;20050;-71
2023/10/14 09:49:10;;;;;;;11.05;3.10;;;;;;;13.76;100.00;98577.34;4955453;28;20051;-74
2023/10/14 09:51:38;;;;;;;12.52;3.30;;;;;;;13.85;100.00;98537.97;4939677;28;20054;-72
2023/10/14 09:54:13;;;;;;;7.38;3.00;;;;;;;14.01;100.00;98565.06;4970669;28;20066;-71
2023/10/14 09:56:43;;;;;;;6.35;3.00;;;;;;;14.14;99.99;98530.34;4924119;28;20090;-78
2023/10/14 09:59:17;;;;;;;16.65;3.85;;;;;;;14.03;99.02;98599.56;4958705;28;20073;-74
2023/10/14 10:01:47;;;;;;;9.80;3.38;;;;;;;14.22;98.58;98556.81;4926081;28;20064;-74
2023/10/14 10:04:19;;;;;;;15.23;3.05;;;;;;;14.32;98.04;98500.34;4958701;28;20053;-74
2023/10/14 10:06:56;;;;;;;10.80;4.00;;;;;;;14.27;97.96;98489.50;4939785;28;20086;-73
2023/10/14 10:10:10;;;;;;;10.27;3.53;;;;;;;14.48;97.54;98513.25;4939917;28;20046;-75
2023/10/14 10:12:38;;;;;;;9.23;2.95;;;;;;;14.49;97.10;98518.41;4966019;28;20124;-72
2023/10/14 10:15:08;;;;;;;7.60;2.97;;;;;;;14.66;96.52;98495.53;4984125;28;20116;-74
2023/10/14 10:17:40;;;;;;;9.70;3.20;;;;;;;14.59;96.43;98499.25;4945288;28;20049;-74
2023/10/14 10:20:10;;;;;;;11.63;3.17;;;;;;;14.49;96.71;98534.44;4938660;28;20137;-75
2023/10/14 10:23:17;;;;;;;11.25;3.25;;;;;;;14.72;95.22;98528.59;4917102;29;20079;-76
2023/10/14 10:25:47;;;;;;;6.60;2.63;;;;;;;14.44;95.96;98509.34;4906479;29;20056;-75
2023/10/14 10:28:25;;;;;;;8.25;2.88;;;;;;;14.74;95.77;98489.94;4917614;29;20059;-74
2023/10/14 10:30:56;;;;;;;8.07;2.95;;;;;;;14.55;95.07;98495.34;4919614;29;20054;-73
2023/10/14 10:33:23;;;;;;;8.10;3.33;;;;;;;14.58;95.15;98513.63;4916557;29;20142;-73
2023/10/14 10:36:03;;;;;;;6.25;2.75;;;;;;;14.82;94.62;98534.31;4939363;28;20062;-73
2023/10/14 10:38:37;;;;;;;6.65;3.05;;;;;;;14.95;94.06;98516.38;4954657;28;20157;-75
2023/10/14 10:41:24;;;;;;;9.10;3.13;;;;;;;15.20;93.31;98489.72;4923730;28;20147;-75
2023/10/14 10:44:12;;;;;;;8.90;3.33;;;;;;;15.23;93.20;98516.03;4932999;28;20161;-74
2023/10/14 10:46:44;;;;;;;9.55;2.72;;;;;;;15.27;92.22;98535.94;4990184;28;20057;-75
2023/10/14 10:49:13;;;;;;;9.52;3.22;;;;;;;15.23;92.30;98522.19;4973780;28;20178;-74
2023/10/14 10:52:13;;;;;;;6.20;2.90;;;;;;;15.36;92.49;98499.88;4973442;28;20141;-72
2023/10/14 10:54:43;;;;;;;6.72;2.30;;;;;;;15.23;92.24;98527.56;4989869;28;20052;-72
2023/10/14 10:57:12;;;;;;;;;;;;;;;15.46;91.56;98486.88;5003441;28;20107;-74
2023/10/14 10:59:40;;;;;;;6.43;2.55;;;;;;;15.40;91.87;98474.38;5039114;28;19930;-76
2023/10/14 11:02:11;;;;;;;9.38;2.38;;;;;;;15.58;91.27;98511.91;5049537;28;20049;-75
2023/10/14 11:04:41;;;;;;;12.63;3.22;;;;;;;15.58;91.21;98474.44;5032310;28;20057;-74
2023/10/14 11:07:09;;;;;;;6.95;2.65;;;;;;;15.54;91.79;98485.81;5035522;28;20053;-75
2023/10/14 11:09:39;;;;;;;8.23;2.95;;;;;;;15.47;92.37;98485.84;5020479;28;20143;-73
2023/10/14 11:12:09;;;;;;;7.80;2.67;;;;;;;15.51;93.10;98484.38;5020689;28;20041;-73
2023/10/14 11:14:35;;;;;;;8.43;3.03;;;;;;;15.43;91.83;98498.03;5037456;28;20118;-73
2023/10/14 11:17:04;;;;;;;6.05;2.60;;;;;;;15.56;91.78;98471.16;5004254;28;20056;-74
2023/10/14 11:19:32;;;;;;;7.65;2.67;;;;;;;15.64;91.18;98484.28;5053571;28;20118;-73
2023/10/14 11:21:59;;;;;;;8.32;2.70;;;;;;;16.06;89.57;98502.25;5004458;28;20044;-72
2023/10/14 11:24:30;;;;;;;5.88;2.75;;;;;;;16.52;86.93;98497.28;5020681;28;20486;-74
2023/10/14 11:26:57;;;;;;;7.70;3.07;;;;;;;16.60;84.95;98518.44;5021111;28;20048;-73
2023/10/14 11:29:24;;;;;;;8.38;3.10;;;;;;;16.61;84.90;98479.00;5037102;28;20291;-74
2023/10/14 11:31:56;;;;;;;7.15;2.75;;;;;;;16.70;84.86;98485.72;5004090;28;20143;-73
2023/10/14 11:34:33;;;;;;;4.82;2.42;;;;;;;16.66;85.15;98480.00;5037349;28;20383;-74
2023/10/14 11:37:00;;;;;;;7.45;2.92;;;;;;;16.58;85.19;98456.16;5019492;28;20087;-73
2023/10/14 11:39:28;;;;;;;9.52;2.80;;;;;;;16.73;84.93;98459.28;4987842;28;20124;-74
2023/10/14 11:41:53;;;;;;;6.82;3.10;;;;;;;16.61;84.17;98492.41;4976726;28;20058;-74
2023/10/14 11:44:20;;;;;;;9.93;3.53;;;;;;;16.52;84.86;98465.09;4928928;28;20514;-75
2023/10/14 11:46:47;;;;;;;7.65;2.90;;;;;;;16.41;85.15;98467.66;4960769;28;20057;-75
2023/10/14 11:49:14;;;;;;;7.80;3.10;;;;;;;16.42;85.60;98458.59;4944937;28;20508;-75
2023/10/14 11:51:47;;;;;;;7.78;2.88;;;;;;;16.50;85.64;98466.34;4960860;28;20056;-75
2023/10/14 11:54:15;;;;;;;8.98;2.83;;;;;;;16.69;85.04;98463.47;4945193;28;20101;-74
2023/10/14 11:56:43;;;;;;;7.32;3.10;;;;;;;16.59;84.77;98481.91;4960694;28;20220;-75
2023/10/14 11:59:13;;;;;;;7.47;3.70;;;;;;;16.65;84.88;98456.88;4944501;28;20130;-74
2023/10/14 12:01:45;;;;;;;10.25;3.90;;;;;;;16.70;84.37;98457.03;4928730;28;20097;-74
2023/10/14 12:04:17;;;;;;;8.52;3.15;;;;;;;16.63;85.41;98468.91;4945521;28;20057;-74
2023/10/14 12:06:43;;;;;;;11.07;4.70;;;;;;;16.45;86.47;98476.94;4964896;28;20100;-78
2023/10/14 12:09:10;;;;;;;8.93;4.30;;;;;;;16.75;86.90;98446.47;4995239;28;20443;-74
2023/10/14 12:11:43;;;;;;;8.00;3.53;;;;;;;16.66;86.56;98508.66;4995722;28;20057;-73
2023/10/14 12:14:11;;;;;;;7.28;3.40;;;;;;;16.58;86.79;98440.09;5056260;28;20051;-77
2023/10/14 12:16:42;;;;;;;8.15;3.38;;;;;;;16.73;86.51;98467.31;5006865;28;20129;-77